Terminal Aerodrome Forecast
Issued by NWS Brownsville, TX

Home | Current Version | Previous Version | Text Only | Print | Product List | Glossary On
Versions: 1 2 3 4 5 6 7 8 9 10 11 12 13 14 15 16 17 18 19 20 21 22 23 24 25
000
FTUS44 KBRO 251208 AAA
TAFMFE
TAF AMD
KMFE 251208Z 2512/2612 12008KT 3SM HZ SCT011 OVC022
      TEMPO 2512/2515 BKN011
     FM251500 15015KT P6SM BKN025
     FM251800 14015G20KT P6SM SCT025 BKN250
     FM260000 13013KT P6SM BKN250
     FM260300 13014KT P6SM BKN015=

USA.gov is the U.S. government's official web portal to all federal, state and local government web resources and services.